sensor_id;sensor_type;location;lat;lon;timestamp;temperature;humidity
957;DHT22;465;48.802;9.224;2022-08-03T00:01:01;22.50;95.90
957;DHT22;465;48.802;9.224;2022-08-03T00:03:27;22.50;96.20
957;DHT22;465;48.802;9.224;2022-08-03T00:05:54;22.40;96.60
957;DHT22;465;48.802;9.224;2022-08-03T00:08:22;22.50;97.10
957;DHT22;465;48.802;9.224;2022-08-03T00:10:49;22.40;97.90
957;DHT22;465;48.802;9.224;2022-08-03T00:13:15;22.30;98.70
957;DHT22;465;48.802;9.224;2022-08-03T00:15:44;22.20;99.40
957;DHT22;465;48.802;9.224;2022-08-03T00:18:10;22.30;99.90
957;DHT22;465;48.802;9.224;2022-08-03T00:20:37;22.30;99.90
957;DHT22;465;48.802;9.224;2022-08-03T00:23:04;22.30;99.90
957;DHT22;465;48.802;9.224;2022-08-03T00:25:33;22.30;99.90
957;DHT22;465;48.802;9.224;2022-08-03T00:28:00;22.20;99.90
957;DHT22;465;48.802;9.224;2022-08-03T00:30:26;22.20;99.90
957;DHT22;465;48.802;9.224;2022-08-03T00:32:53;22.10;99.90
957;DHT22;465;48.802;9.224;2022-08-03T00:35:20;22.00;99.90
957;DHT22;465;48.802;9.224;2022-08-03T00:37:46;22.00;99.90
957;DHT22;465;48.802;9.224;2022-08-03T00:40:14;21.90;99.90
957;DHT22;465;48.802;9.224;2022-08-03T00:42:47;21.90;99.90
957;DHT22;465;48.802;9.224;2022-08-03T00:45:15;21.90;99.90
957;DHT22;465;48.802;9.224;2022-08-03T00:47:42;21.80;99.90
957;DHT22;465;48.802;9.224;2022-08-03T00:50:09;21.70;99.90
957;DHT22;465;48.802;9.224;2022-08-03T00:52:36;21.70;99.90
957;DHT22;465;48.802;9.224;2022-08-03T00:55:03;21.60;99.90
957;DHT22;465;48.802;9.224;2022-08-03T00:57:31;21.70;99.90
957;DHT22;465;48.802;9.224;2022-08-03T00:59:59;21.70;99.90
957;DHT22;465;48.802;9.224;2022-08-03T01:02:26;21.60;99.90
957;DHT22;465;48.802;9.224;2022-08-03T01:04:54;21.60;99.90
957;DHT22;465;48.802;9.224;2022-08-03T01:07:26;21.60;99.90
957;DHT22;465;48.802;9.224;2022-08-03T01:10:02;21.70;99.90
957;DHT22;465;48.802;9.224;2022-08-03T01:12:38;21.60;99.90
957;DHT22;465;48.802;9.224;2022-08-03T01:15:16;21.60;99.90
957;DHT22;465;48.802;9.224;2022-08-03T01:17:49;21.60;99.90
957;DHT22;465;48.802;9.224;2022-08-03T01:20:17;21.60;99.90
957;DHT22;465;48.802;9.224;2022-08-03T01:26:05;21.60;99.90
957;DHT22;465;48.802;9.224;2022-08-03T01:28:47;21.40;99.90
957;DHT22;465;48.802;9.224;2022-08-03T01:31:20;21.40;99.90
957;DHT22;465;48.802;9.224;2022-08-03T01:33:51;21.40;99.90
957;DHT22;465;48.802;9.224;2022-08-03T01:36:23;21.30;99.90
957;DHT22;465;48.802;9.224;2022-08-03T01:38:55;21.30;99.90
957;DHT22;465;48.802;9.224;2022-08-03T01:41:28;21.30;99.90
957;DHT22;465;48.802;9.224;2022-08-03T01:43:57;21.30;99.90
957;DHT22;465;48.802;9.224;2022-08-03T01:46:27;21.30;99.90
957;DHT22;465;48.802;9.224;2022-08-03T01:48:56;21.20;99.90
957;DHT22;465;48.802;9.224;2022-08-03T01:51:24;21.20;99.90
957;DHT22;465;48.802;9.224;2022-08-03T01:53:51;21.20;99.90
957;DHT22;465;48.802;9.224;2022-08-03T01:56:21;21.10;99.90
957;DHT22;465;48.802;9.224;2022-08-03T01:58:50;21.10;99.90
957;DHT22;465;48.802;9.224;2022-08-03T02:01:20;21.10;99.90
957;DHT22;465;48.802;9.224;2022-08-03T02:03:49;21.10;99.90
957;DHT22;465;48.802;9.224;2022-08-03T02:06:18;21.00;99.90
957;DHT22;465;48.802;9.224;2022-08-03T02:08:46;21.00;99.90
957;DHT22;465;48.802;9.224;2022-08-03T02:11:14;21.00;99.90
957;DHT22;465;48.802;9.224;2022-08-03T02:13:42;21.00;99.90
957;DHT22;465;48.802;9.224;2022-08-03T02:16:09;21.00;99.90
957;DHT22;465;48.802;9.224;2022-08-03T02:18:37;21.00;99.90
957;DHT22;465;48.802;9.224;2022-08-03T02:21:06;20.90;99.90
957;DHT22;465;48.802;9.224;2022-08-03T02:23:35;20.90;99.90
957;DHT22;465;48.802;9.224;2022-08-03T02:26:03;20.90;99.90
957;DHT22;465;48.802;9.224;2022-08-03T02:28:33;20.80;99.90
957;DHT22;465;48.802;9.224;2022-08-03T02:31:03;20.70;99.90
957;DHT22;465;48.802;9.224;2022-08-03T02:33:33;20.70;99.90
957;DHT22;465;48.802;9.224;2022-08-03T02:36:01;20.60;99.90
957;DHT22;465;48.802;9.224;2022-08-03T02:38:32;20.60;99.90
957;DHT22;465;48.802;9.224;2022-08-03T02:41:01;20.50;99.90
957;DHT22;465;48.802;9.224;2022-08-03T02:43:31;20.50;99.90
957;DHT22;465;48.802;9.224;2022-08-03T02:45:59;20.50;99.90
957;DHT22;465;48.802;9.224;2022-08-03T02:48:28;20.50;99.90
957;DHT22;465;48.802;9.224;2022-08-03T02:50:57;20.50;99.90
957;DHT22;465;48.802;9.224;2022-08-03T02:53:25;20.40;99.90
957;DHT22;465;48.802;9.224;2022-08-03T02:55:54;20.40;99.90
957;DHT22;465;48.802;9.224;2022-08-03T02:58:22;20.50;99.90
957;DHT22;465;48.802;9.224;2022-08-03T03:00:50;20.40;99.90
957;DHT22;465;48.802;9.224;2022-08-03T03:03:17;20.50;99.90
957;DHT22;465;48.802;9.224;2022-08-03T03:05:45;20.50;99.90
957;DHT22;465;48.802;9.224;2022-08-03T03:08:13;20.50;99.90
957;DHT22;465;48.802;9.224;2022-08-03T03:10:41;20.40;99.90
957;DHT22;465;48.802;9.224;2022-08-03T03:13:09;20.40;99.90
957;DHT22;465;48.802;9.224;2022-08-03T03:15:38;20.40;99.90
957;DHT22;465;48.802;9.224;2022-08-03T03:18:06;20.40;99.90
957;DHT22;465;48.802;9.224;2022-08-03T03:20:35;20.40;99.90
957;DHT22;465;48.802;9.224;2022-08-03T03:23:03;20.30;99.90
957;DHT22;465;48.802;9.224;2022-08-03T03:25:31;20.30;99.90
957;DHT22;465;48.802;9.224;2022-08-03T03:27:59;20.20;99.90
957;DHT22;465;48.802;9.224;2022-08-03T03:30:28;20.30;99.90
957;DHT22;465;48.802;9.224;2022-08-03T03:32:56;20.20;99.90
957;DHT22;465;48.802;9.224;2022-08-03T03:35:24;20.20;99.90
957;DHT22;465;48.802;9.224;2022-08-03T03:37:51;20.20;99.90
957;DHT22;465;48.802;9.224;2022-08-03T03:40:19;20.20;99.90
957;DHT22;465;48.802;9.224;2022-08-03T03:42:46;20.10;99.90
957;DHT22;465;48.802;9.224;2022-08-03T03:45:13;20.10;99.90
957;DHT22;465;48.802;9.224;2022-08-03T03:47:42;20.10;99.90
957;DHT22;465;48.802;9.224;2022-08-03T03:50:09;20.10;99.90
957;DHT22;465;48.802;9.224;2022-08-03T03:52:36;20.10;99.90
957;DHT22;465;48.802;9.224;2022-08-03T03:55:03;20.00;99.90
957;DHT22;465;48.802;9.224;2022-08-03T03:57:30;20.10;99.90
957;DHT22;465;48.802;9.224;2022-08-03T03:59:57;20.10;99.90
957;DHT22;465;48.802;9.224;2022-08-03T04:02:24;20.00;99.90
957;DHT22;465;48.802;9.224;2022-08-03T04:04:52;20.00;99.90
957;DHT22;465;48.802;9.224;2022-08-03T04:07:44;20.00;99.90
957;DHT22;465;48.802;9.224;2022-08-03T04:10:30;20.00;99.90
957;DHT22;465;48.802;9.224;2022-08-03T04:13:17;19.90;99.90
957;DHT22;465;48.802;9.224;2022-08-03T04:15:46;20.00;99.90
957;DHT22;465;48.802;9.224;2022-08-03T04:18:15;20.00;99.90
957;DHT22;465;48.802;9.224;2022-08-03T04:20:45;20.00;99.90
957;DHT22;465;48.802;9.224;2022-08-03T04:23:13;20.00;99.90
957;DHT22;465;48.802;9.224;2022-08-03T04:25:43;20.00;99.90
957;DHT22;465;48.802;9.224;2022-08-03T04:28:10;20.00;99.90
957;DHT22;465;48.802;9.224;2022-08-03T04:30:38;20.00;99.90
957;DHT22;465;48.802;9.224;2022-08-03T04:33:12;20.00;99.90
957;DHT22;465;48.802;9.224;2022-08-03T04:35:40;20.00;99.90
957;DHT22;465;48.802;9.224;2022-08-03T04:38:12;20.00;99.90
957;DHT22;465;48.802;9.224;2022-08-03T04:40:41;20.00;99.90
957;DHT22;465;48.802;9.224;2022-08-03T04:43:10;20.00;99.90
957;DHT22;465;48.802;9.224;2022-08-03T04:45:38;20.00;99.90
957;DHT22;465;48.802;9.224;2022-08-03T04:48:06;20.00;99.90
957;DHT22;465;48.802;9.224;2022-08-03T04:50:33;20.00;99.90
957;DHT22;465;48.802;9.224;2022-08-03T04:53:00;20.00;99.90
957;DHT22;465;48.802;9.224;2022-08-03T04:55:30;20.00;99.90
957;DHT22;465;48.802;9.224;2022-08-03T04:57:57;20.00;99.90
957;DHT22;465;48.802;9.224;2022-08-03T05:00:24;20.00;99.90
957;DHT22;465;48.802;9.224;2022-08-03T05:02:51;20.00;99.90
957;DHT22;465;48.802;9.224;2022-08-03T05:05:20;20.10;99.90
957;DHT22;465;48.802;9.224;2022-08-03T05:07:47;20.20;99.90
957;DHT22;465;48.802;9.224;2022-08-03T05:10:14;20.40;99.90
957;DHT22;465;48.802;9.224;2022-08-03T05:12:43;20.90;99.90
957;DHT22;465;48.802;9.224;2022-08-03T05:15:11;21.30;99.90
957;DHT22;465;48.802;9.224;2022-08-03T05:17:38;21.70;99.90
957;DHT22;465;48.802;9.224;2022-08-03T05:20:05;21.90;99.90
957;DHT22;465;48.802;9.224;2022-08-03T05:22:32;22.20;99.90
957;DHT22;465;48.802;9.224;2022-08-03T05:25:00;22.70;99.90
957;DHT22;465;48.802;9.224;2022-08-03T05:27:26;23.30;99.90
957;DHT22;465;48.802;9.224;2022-08-03T05:29:54;23.60;99.90
957;DHT22;465;48.802;9.224;2022-08-03T05:32:21;24.10;99.90
957;DHT22;465;48.802;9.224;2022-08-03T05:34:48;24.50;98.90
957;DHT22;465;48.802;9.224;2022-08-03T05:37:14;24.70;97.60
957;DHT22;465;48.802;9.224;2022-08-03T05:39:41;25.00;96.40
957;DHT22;465;48.802;9.224;2022-08-03T05:42:08;25.40;95.10
957;DHT22;465;48.802;9.224;2022-08-03T05:44:35;25.50;94.20
957;DHT22;465;48.802;9.224;2022-08-03T05:47:04;25.90;93.20
957;DHT22;465;48.802;9.224;2022-08-03T05:49:31;26.20;92.10
957;DHT22;465;48.802;9.224;2022-08-03T05:51:57;26.20;91.10
957;DHT22;465;48.802;9.224;2022-08-03T05:54:24;26.00;91.30
957;DHT22;465;48.802;9.224;2022-08-03T05:56:51;26.00;91.30
957;DHT22;465;48.802;9.224;2022-08-03T05:59:18;26.40;91.00
957;DHT22;465;48.802;9.224;2022-08-03T06:01:46;26.80;90.00
957;DHT22;465;48.802;9.224;2022-08-03T06:04:14;27.10;88.20
957;DHT22;465;48.802;9.224;2022-08-03T06:06:40;27.50;85.90
957;DHT22;465;48.802;9.224;2022-08-03T06:09:07;27.80;84.10
957;DHT22;465;48.802;9.224;2022-08-03T06:11:34;28.00;82.20
957;DHT22;465;48.802;9.224;2022-08-03T06:14:01;28.30;80.40
957;DHT22;465;48.802;9.224;2022-08-03T06:16:28;28.60;79.70
957;DHT22;465;48.802;9.224;2022-08-03T06:18:55;29.00;78.00
957;DHT22;465;48.802;9.224;2022-08-03T06:21:23;29.20;75.70
957;DHT22;465;48.802;9.224;2022-08-03T06:23:50;29.70;74.20
957;DHT22;465;48.802;9.224;2022-08-03T06:26:16;29.90;72.10
957;DHT22;465;48.802;9.224;2022-08-03T06:28:43;30.30;71.00
957;DHT22;465;48.802;9.224;2022-08-03T06:31:10;30.50;69.50
957;DHT22;465;48.802;9.224;2022-08-03T06:33:37;30.50;68.50
957;DHT22;465;48.802;9.224;2022-08-03T06:36:04;30.80;67.40
957;DHT22;465;48.802;9.224;2022-08-03T06:38:32;30.80;66.90
957;DHT22;465;48.802;9.224;2022-08-03T06:40:59;31.50;66.00
957;DHT22;465;48.802;9.224;2022-08-03T06:43:26;32.00;63.60
957;DHT22;465;48.802;9.224;2022-08-03T06:45:52;31.90;62.30
957;DHT22;465;48.802;9.224;2022-08-03T06:48:25;32.10;61.20
957;DHT22;465;48.802;9.224;2022-08-03T06:50:52;31.50;63.10
957;DHT22;465;48.802;9.224;2022-08-03T06:53:18;31.90;62.10
957;DHT22;465;48.802;9.224;2022-08-03T06:55:47;32.60;60.40
957;DHT22;465;48.802;9.224;2022-08-03T06:58:14;32.70;58.80
957;DHT22;465;48.802;9.224;2022-08-03T07:00:40;32.90;58.80
957;DHT22;465;48.802;9.224;2022-08-03T07:03:07;33.60;57.80
957;DHT22;465;48.802;9.224;2022-08-03T07:05:34;33.50;57.20
957;DHT22;465;48.802;9.224;2022-08-03T07:08:00;33.40;57.10
957;DHT22;465;48.802;9.224;2022-08-03T07:10:27;33.20;56.80
957;DHT22;465;48.802;9.224;2022-08-03T07:12:56;33.30;56.70
957;DHT22;465;48.802;9.224;2022-08-03T07:15:22;33.20;56.00
957;DHT22;465;48.802;9.224;2022-08-03T07:17:49;33.30;56.00
957;DHT22;465;48.802;9.224;2022-08-03T07:20:16;33.40;56.70
957;DHT22;465;48.802;9.224;2022-08-03T07:22:43;33.30;56.20
957;DHT22;465;48.802;9.224;2022-08-03T07:25:10;34.00;55.40
957;DHT22;465;48.802;9.224;2022-08-03T07:27:37;33.90;53.90
957;DHT22;465;48.802;9.224;2022-08-03T07:30:07;34.30;54.30
957;DHT22;465;48.802;9.224;2022-08-03T07:32:34;35.20;53.00
957;DHT22;465;48.802;9.224;2022-08-03T07:35:01;35.40;51.70
957;DHT22;465;48.802;9.224;2022-08-03T07:37:29;35.90;50.40
957;DHT22;465;48.802;9.224;2022-08-03T07:39:56;36.10;49.70
957;DHT22;465;48.802;9.224;2022-08-03T07:42:23;36.10;48.90
957;DHT22;465;48.802;9.224;2022-08-03T07:44:49;36.00;49.10
957;DHT22;465;48.802;9.224;2022-08-03T07:47:19;36.60;47.80
957;DHT22;465;48.802;9.224;2022-08-03T07:49:45;35.60;48.40
957;DHT22;465;48.802;9.224;2022-08-03T07:52:12;36.10;48.90
957;DHT22;465;48.802;9.224;2022-08-03T07:54:56;36.40;48.00
957;DHT22;465;48.802;9.224;2022-08-03T07:57:23;37.20;47.30
957;DHT22;465;48.802;9.224;2022-08-03T07:59:50;38.00;45.90
957;DHT22;465;48.802;9.224;2022-08-03T08:02:18;37.60;45.70
957;DHT22;465;48.802;9.224;2022-08-03T08:04:45;38.20;45.60
957;DHT22;465;48.802;9.224;2022-08-03T08:07:12;38.60;44.50
957;DHT22;465;48.802;9.224;2022-08-03T08:09:38;39.00;43.50
957;DHT22;465;48.802;9.224;2022-08-03T08:12:05;38.10;43.90
957;DHT22;465;48.802;9.224;2022-08-03T08:14:33;37.10;45.70
957;DHT22;465;48.802;9.224;2022-08-03T08:17:00;36.90;46.30
957;DHT22;465;48.802;9.224;2022-08-03T08:19:28;37.60;45.10
957;DHT22;465;48.802;9.224;2022-08-03T08:21:55;38.60;43.50
957;DHT22;465;48.802;9.224;2022-08-03T08:24:21;38.80;42.30
957;DHT22;465;48.802;9.224;2022-08-03T08:26:48;39.30;41.90
957;DHT22;465;48.802;9.224;2022-08-03T08:29:15;40.50;40.50
957;DHT22;465;48.802;9.224;2022-08-03T08:31:41;40.20;39.80
957;DHT22;465;48.802;9.224;2022-08-03T08:34:08;40.80;39.60
957;DHT22;465;48.802;9.224;2022-08-03T08:36:36;41.70;37.50
957;DHT22;465;48.802;9.224;2022-08-03T08:39:03;42.20;36.80
957;DHT22;465;48.802;9.224;2022-08-03T08:41:29;42.10;34.70
957;DHT22;465;48.802;9.224;2022-08-03T08:43:59;42.50;34.70
957;DHT22;465;48.802;9.224;2022-08-03T08:46:26;42.60;33.90
957;DHT22;465;48.802;9.224;2022-08-03T08:48:55;42.50;33.30
957;DHT22;465;48.802;9.224;2022-08-03T08:51:27;42.80;33.50
957;DHT22;465;48.802;9.224;2022-08-03T08:54:00;42.30;33.80
957;DHT22;465;48.802;9.224;2022-08-03T08:56:28;41.90;33.50
957;DHT22;465;48.802;9.224;2022-08-03T08:58:58;41.90;33.80
957;DHT22;465;48.802;9.224;2022-08-03T09:01:25;42.40;33.00
957;DHT22;465;48.802;9.224;2022-08-03T09:03:52;43.00;31.50
957;DHT22;465;48.802;9.224;2022-08-03T09:06:19;43.20;31.10
957;DHT22;465;48.802;9.224;2022-08-03T09:08:46;44.10;30.00
957;DHT22;465;48.802;9.224;2022-08-03T09:11:14;44.10;30.00
957;DHT22;465;48.802;9.224;2022-08-03T09:13:41;43.40;30.30
957;DHT22;465;48.802;9.224;2022-08-03T09:16:10;44.30;30.10
957;DHT22;465;48.802;9.224;2022-08-03T09:18:37;44.80;29.10
957;DHT22;465;48.802;9.224;2022-08-03T09:21:17;44.50;28.90
957;DHT22;465;48.802;9.224;2022-08-03T09:23:45;43.30;29.40
957;DHT22;465;48.802;9.224;2022-08-03T09:26:19;43.30;29.60
957;DHT22;465;48.802;9.224;2022-08-03T09:28:46;44.30;29.20
957;DHT22;465;48.802;9.224;2022-08-03T09:31:12;44.60;28.30
957;DHT22;465;48.802;9.224;2022-08-03T09:33:46;44.60;28.40
957;DHT22;465;48.802;9.224;2022-08-03T09:36:37;44.90;28.40
957;DHT22;465;48.802;9.224;2022-08-03T09:39:06;44.30;28.80
957;DHT22;465;48.802;9.224;2022-08-03T09:41:37;44.30;28.80
957;DHT22;465;48.802;9.224;2022-08-03T09:44:04;44.50;28.80
957;DHT22;465;48.802;9.224;2022-08-03T09:46:31;44.30;28.50
957;DHT22;465;48.802;9.224;2022-08-03T09:49:08;45.20;28.00
957;DHT22;465;48.802;9.224;2022-08-03T09:51:36;42.90;28.30
957;DHT22;465;48.802;9.224;2022-08-03T09:54:06;42.50;30.00
957;DHT22;465;48.802;9.224;2022-08-03T09:56:45;43.40;29.10
957;DHT22;465;48.802;9.224;2022-08-03T09:59:22;43.20;28.60
957;DHT22;465;48.802;9.224;2022-08-03T10:01:49;43.50;28.90
957;DHT22;465;48.802;9.224;2022-08-03T10:04:16;43.90;28.80
957;DHT22;465;48.802;9.224;2022-08-03T10:06:44;43.40;29.10
957;DHT22;465;48.802;9.224;2022-08-03T10:09:13;43.20;29.50
957;DHT22;465;48.802;9.224;2022-08-03T10:11:41;44.00;28.70
957;DHT22;465;48.802;9.224;2022-08-03T10:14:11;44.70;27.90
957;DHT22;465;48.802;9.224;2022-08-03T10:16:45;44.90;27.50
957;DHT22;465;48.802;9.224;2022-08-03T10:19:12;44.60;27.50
957;DHT22;465;48.802;9.224;2022-08-03T10:21:41;44.10;27.90
957;DHT22;465;48.802;9.224;2022-08-03T10:24:09;42.90;27.90
957;DHT22;465;48.802;9.224;2022-08-03T10:26:38;44.00;27.80
957;DHT22;465;48.802;9.224;2022-08-03T10:29:16;44.70;27.30
957;DHT22;465;48.802;9.224;2022-08-03T10:31:45;44.50;26.50
957;DHT22;465;48.802;9.224;2022-08-03T10:34:17;44.40;26.20
957;DHT22;465;48.802;9.224;2022-08-03T10:36:46;44.50;26.70
957;DHT22;465;48.802;9.224;2022-08-03T10:39:13;44.30;26.90
957;DHT22;465;48.802;9.224;2022-08-03T10:41:42;44.30;26.10
957;DHT22;465;48.802;9.224;2022-08-03T10:44:16;45.20;25.90
957;DHT22;465;48.802;9.224;2022-08-03T10:46:44;45.30;25.50
957;DHT22;465;48.802;9.224;2022-08-03T10:49:13;45.70;25.00
957;DHT22;465;48.802;9.224;2022-08-03T10:51:40;45.30;25.00
957;DHT22;465;48.802;9.224;2022-08-03T10:54:37;43.90;26.60
957;DHT22;465;48.802;9.224;2022-08-03T10:57:45;45.30;25.90
957;DHT22;465;48.802;9.224;2022-08-03T11:00:13;44.80;25.20
957;DHT22;465;48.802;9.224;2022-08-03T11:03:03;44.30;26.60
957;DHT22;465;48.802;9.224;2022-08-03T11:05:32;43.40;26.70
957;DHT22;465;48.802;9.224;2022-08-03T11:08:28;42.50;27.70
957;DHT22;465;48.802;9.224;2022-08-03T11:10:58;44.00;27.20
957;DHT22;465;48.802;9.224;2022-08-03T11:13:27;44.80;26.50
957;DHT22;465;48.802;9.224;2022-08-03T11:16:00;46.00;25.80
957;DHT22;465;48.802;9.224;2022-08-03T11:18:27;46.10;25.00
957;DHT22;465;48.802;9.224;2022-08-03T11:20:55;45.80;25.00
957;DHT22;465;48.802;9.224;2022-08-03T11:23:40;46.00;25.00
957;DHT22;465;48.802;9.224;2022-08-03T11:26:12;45.40;25.40
957;DHT22;465;48.802;9.224;2022-08-03T11:28:39;45.70;25.50
957;DHT22;465;48.802;9.224;2022-08-03T11:31:45;45.60;25.50
957;DHT22;465;48.802;9.224;2022-08-03T11:34:14;47.00;24.60
957;DHT22;465;48.802;9.224;2022-08-03T11:39:47;46.40;24.80
957;DHT22;465;48.802;9.224;2022-08-03T11:42:39;46.90;24.80
957;DHT22;465;48.802;9.224;2022-08-03T11:45:09;47.10;24.50
957;DHT22;465;48.802;9.224;2022-08-03T11:47:38;48.00;23.90
957;DHT22;465;48.802;9.224;2022-08-03T11:50:06;47.10;24.00
957;DHT22;465;48.802;9.224;2022-08-03T11:52:35;47.10;24.20
957;DHT22;465;48.802;9.224;2022-08-03T11:55:17;47.50;24.20
957;DHT22;465;48.802;9.224;2022-08-03T11:57:45;49.10;23.30
957;DHT22;465;48.802;9.224;2022-08-03T12:00:23;48.40;23.30
957;DHT22;465;48.802;9.224;2022-08-03T12:02:56;48.00;23.50
957;DHT22;465;48.802;9.224;2022-08-03T12:08:13;47.40;23.90
957;DHT22;465;48.802;9.224;2022-08-03T12:10:50;46.70;24.30
957;DHT22;465;48.802;9.224;2022-08-03T12:13:19;45.20;25.60
957;DHT22;465;48.802;9.224;2022-08-03T12:19:51;45.60;25.70
957;DHT22;465;48.802;9.224;2022-08-03T12:25:49;44.40;26.10
957;DHT22;465;48.802;9.224;2022-08-03T12:44:54;44.40;26.50
957;DHT22;465;48.802;9.224;2022-08-03T12:47:21;45.70;25.40
957;DHT22;465;48.802;9.224;2022-08-03T12:49:51;45.90;25.10
957;DHT22;465;48.802;9.224;2022-08-03T12:52:20;45.30;25.60
957;DHT22;465;48.802;9.224;2022-08-03T12:54:53;45.50;25.50
957;DHT22;465;48.802;9.224;2022-08-03T12:57:20;45.40;25.70
957;DHT22;465;48.802;9.224;2022-08-03T12:59:47;46.40;25.10
957;DHT22;465;48.802;9.224;2022-08-03T13:02:17;46.10;25.10
957;DHT22;465;48.802;9.224;2022-08-03T13:04:44;47.00;24.70
957;DHT22;465;48.802;9.224;2022-08-03T13:07:11;47.60;24.10
957;DHT22;465;48.802;9.224;2022-08-03T13:09:43;46.80;24.10
957;DHT22;465;48.802;9.224;2022-08-03T13:12:11;46.90;24.20
957;DHT22;465;48.802;9.224;2022-08-03T13:14:39;46.40;24.60
957;DHT22;465;48.802;9.224;2022-08-03T13:17:06;46.00;24.70
957;DHT22;465;48.802;9.224;2022-08-03T13:19:34;44.30;26.10
957;DHT22;465;48.802;9.224;2022-08-03T13:22:10;44.70;26.10
957;DHT22;465;48.802;9.224;2022-08-03T13:24:37;45.50;25.40
957;DHT22;465;48.802;9.224;2022-08-03T13:27:04;46.00;25.20
957;DHT22;465;48.802;9.224;2022-08-03T13:29:32;44.50;26.10
957;DHT22;465;48.802;9.224;2022-08-03T13:31:58;44.80;26.30
957;DHT22;465;48.802;9.224;2022-08-03T13:34:25;45.40;26.00
957;DHT22;465;48.802;9.224;2022-08-03T13:36:53;46.40;25.30
957;DHT22;465;48.802;9.224;2022-08-03T13:39:20;47.60;24.40
957;DHT22;465;48.802;9.224;2022-08-03T13:41:47;47.60;24.10
957;DHT22;465;48.802;9.224;2022-08-03T13:44:14;44.80;25.40
957;DHT22;465;48.802;9.224;2022-08-03T13:46:40;45.00;26.20
957;DHT22;465;48.802;9.224;2022-08-03T13:49:07;45.10;25.80
957;DHT22;465;48.802;9.224;2022-08-03T13:51:34;45.90;25.40
957;DHT22;465;48.802;9.224;2022-08-03T13:54:02;45.90;25.20
957;DHT22;465;48.802;9.224;2022-08-03T13:56:29;44.10;26.00
957;DHT22;465;48.802;9.224;2022-08-03T13:58:56;44.20;26.50
957;DHT22;465;48.802;9.224;2022-08-03T14:01:24;45.00;25.90
957;DHT22;465;48.802;9.224;2022-08-03T14:03:51;45.70;25.50
957;DHT22;465;48.802;9.224;2022-08-03T14:06:19;46.50;24.70
957;DHT22;465;48.802;9.224;2022-08-03T14:08:46;45.60;25.30
957;DHT22;465;48.802;9.224;2022-08-03T14:11:15;45.40;25.10
957;DHT22;465;48.802;9.224;2022-08-03T14:13:42;45.90;25.20
957;DHT22;465;48.802;9.224;2022-08-03T14:16:09;45.60;25.40
957;DHT22;465;48.802;9.224;2022-08-03T14:18:35;43.60;26.00
957;DHT22;465;48.802;9.224;2022-08-03T14:21:04;43.40;26.80
957;DHT22;465;48.802;9.224;2022-08-03T14:23:31;43.00;27.00
957;DHT22;465;48.802;9.224;2022-08-03T14:25:58;41.80;27.90
957;DHT22;465;48.802;9.224;2022-08-03T14:28:26;41.50;28.20
957;DHT22;465;48.802;9.224;2022-08-03T14:30:54;42.50;28.20
957;DHT22;465;48.802;9.224;2022-08-03T14:33:21;42.00;27.90
957;DHT22;465;48.802;9.224;2022-08-03T14:35:48;41.90;28.40
957;DHT22;465;48.802;9.224;2022-08-03T14:38:16;42.30;27.80
957;DHT22;465;48.802;9.224;2022-08-03T14:40:43;42.80;27.40
957;DHT22;465;48.802;9.224;2022-08-03T14:43:09;43.10;27.10
957;DHT22;465;48.802;9.224;2022-08-03T14:45:38;42.30;27.40
957;DHT22;465;48.802;9.224;2022-08-03T14:48:05;42.00;28.00
957;DHT22;465;48.802;9.224;2022-08-03T14:50:31;41.40;27.80
957;DHT22;465;48.802;9.224;2022-08-03T14:52:59;41.50;28.60
957;DHT22;465;48.802;9.224;2022-08-03T14:55:25;41.50;28.50
957;DHT22;465;48.802;9.224;2022-08-03T14:57:52;41.00;29.00
957;DHT22;465;48.802;9.224;2022-08-03T15:00:19;39.90;29.80
957;DHT22;465;48.802;9.224;2022-08-03T15:02:47;39.40;30.60
957;DHT22;465;48.802;9.224;2022-08-03T15:05:13;38.00;32.20
957;DHT22;465;48.802;9.224;2022-08-03T15:07:40;37.00;33.60
957;DHT22;465;48.802;9.224;2022-08-03T15:10:07;36.60;34.60
957;DHT22;465;48.802;9.224;2022-08-03T15:12:34;36.30;35.20
957;DHT22;465;48.802;9.224;2022-08-03T15:15:00;35.80;35.20
957;DHT22;465;48.802;9.224;2022-08-03T15:17:27;35.50;35.80
957;DHT22;465;48.802;9.224;2022-08-03T15:19:55;35.50;36.10
957;DHT22;465;48.802;9.224;2022-08-03T15:22:22;35.50;36.20
957;DHT22;465;48.802;9.224;2022-08-03T15:24:48;35.40;35.90
957;DHT22;465;48.802;9.224;2022-08-03T15:27:15;35.30;36.40
957;DHT22;465;48.802;9.224;2022-08-03T15:29:42;35.00;36.60
957;DHT22;465;48.802;9.224;2022-08-03T15:32:08;34.50;37.30
957;DHT22;465;48.802;9.224;2022-08-03T15:34:35;34.60;37.50
957;DHT22;465;48.802;9.224;2022-08-03T15:37:03;34.60;37.60
957;DHT22;465;48.802;9.224;2022-08-03T15:39:30;34.60;37.40
957;DHT22;465;48.802;9.224;2022-08-03T15:41:57;34.80;37.50
957;DHT22;465;48.802;9.224;2022-08-03T15:44:24;34.80;36.90
957;DHT22;465;48.802;9.224;2022-08-03T15:46:51;34.90;36.90
957;DHT22;465;48.802;9.224;2022-08-03T15:49:18;34.90;35.70
957;DHT22;465;48.802;9.224;2022-08-03T15:51:45;35.00;35.70
957;DHT22;465;48.802;9.224;2022-08-03T15:54:13;35.00;35.10
957;DHT22;465;48.802;9.224;2022-08-03T15:56:40;35.00;35.40
957;DHT22;465;48.802;9.224;2022-08-03T15:59:09;34.90;36.00
957;DHT22;465;48.802;9.224;2022-08-03T16:01:36;34.60;35.90
957;DHT22;465;48.802;9.224;2022-08-03T16:04:04;34.60;36.10
957;DHT22;465;48.802;9.224;2022-08-03T16:06:30;34.60;36.60
957;DHT22;465;48.802;9.224;2022-08-03T16:08:57;34.60;35.80
957;DHT22;465;48.802;9.224;2022-08-03T16:11:27;34.60;35.60
957;DHT22;465;48.802;9.224;2022-08-03T16:13:57;34.60;36.00
957;DHT22;465;48.802;9.224;2022-08-03T16:16:24;34.50;35.90
957;DHT22;465;48.802;9.224;2022-08-03T16:18:50;34.60;36.20
957;DHT22;465;48.802;9.224;2022-08-03T16:21:18;34.50;36.00
957;DHT22;465;48.802;9.224;2022-08-03T16:23:45;34.50;35.70
957;DHT22;465;48.802;9.224;2022-08-03T16:26:12;34.20;35.00
957;DHT22;465;48.802;9.224;2022-08-03T16:28:41;34.10;35.70
957;DHT22;465;48.802;9.224;2022-08-03T16:31:08;33.90;36.10
957;DHT22;465;48.802;9.224;2022-08-03T16:33:34;33.90;36.30
957;DHT22;465;48.802;9.224;2022-08-03T16:36:01;34.00;36.30
957;DHT22;465;48.802;9.224;2022-08-03T16:38:28;34.10;37.10
957;DHT22;465;48.802;9.224;2022-08-03T16:40:55;34.10;37.80
957;DHT22;465;48.802;9.224;2022-08-03T16:43:22;34.10;38.00
957;DHT22;465;48.802;9.224;2022-08-03T16:45:50;34.10;38.00
957;DHT22;465;48.802;9.224;2022-08-03T16:48:17;34.10;38.30
957;DHT22;465;48.802;9.224;2022-08-03T16:50:44;34.10;37.90
957;DHT22;465;48.802;9.224;2022-08-03T16:53:12;34.10;36.50
957;DHT22;465;48.802;9.224;2022-08-03T16:55:39;33.90;36.10
957;DHT22;465;48.802;9.224;2022-08-03T16:58:06;33.80;36.50
957;DHT22;465;48.802;9.224;2022-08-03T17:00:34;33.70;36.80
957;DHT22;465;48.802;9.224;2022-08-03T17:03:03;33.70;36.70
957;DHT22;465;48.802;9.224;2022-08-03T17:05:32;33.70;36.90
957;DHT22;465;48.802;9.224;2022-08-03T17:08:00;33.50;36.40
957;DHT22;465;48.802;9.224;2022-08-03T17:10:27;33.50;36.50
957;DHT22;465;48.802;9.224;2022-08-03T17:12:53;33.50;36.50
957;DHT22;465;48.802;9.224;2022-08-03T17:15:20;33.40;36.70
957;DHT22;465;48.802;9.224;2022-08-03T17:17:53;33.30;36.50